createdAt,value
2022-12-28T00:00:33.001Z,0.00
2022-12-28T00:01:32.909Z,0.00
2022-12-28T00:02:32.944Z,0.00
2022-12-28T00:03:32.846Z,0.00
2022-12-28T00:04:32.861Z,0.00
2022-12-28T00:05:32.822Z,0.00
2022-12-28T00:06:32.854Z,0.00
2022-12-28T00:07:32.821Z,0.00
2022-12-28T00:08:32.801Z,0.00
2022-12-28T00:09:32.780Z,0.00
2022-12-28T00:11:07.554Z,0.00
2022-12-28T00:11:33.782Z,0.00
2022-12-28T00:12:32.751Z,0.00
2022-12-28T00:13:32.722Z,0.00
2022-12-28T00:14:32.723Z,0.00
2022-12-28T00:15:32.705Z,0.00
2022-12-28T00:16:32.728Z,0.00
2022-12-28T00:17:32.684Z,0.00
2022-12-28T00:18:32.660Z,0.00
2022-12-28T00:19:39.671Z,0.00
2022-12-28T00:20:32.635Z,0.00
2022-12-28T00:21:32.617Z,0.00
2022-12-28T00:22:32.587Z,0.00
2022-12-28T00:23:32.583Z,0.00
2022-12-28T00:24:32.575Z,0.00
2022-12-28T00:25:32.576Z,0.00
2022-12-28T00:26:32.537Z,0.00
2022-12-28T00:27:32.547Z,0.00
2022-12-28T00:28:32.564Z,0.00
2022-12-28T00:29:32.531Z,0.00
2022-12-28T00:30:32.534Z,0.00
2022-12-28T00:31:32.551Z,0.00
2022-12-28T00:32:32.464Z,0.00
2022-12-28T00:33:32.474Z,0.00
2022-12-28T00:34:32.433Z,0.00
2022-12-28T00:35:32.444Z,0.00
2022-12-28T00:37:10.691Z,0.00
2022-12-28T00:37:33.404Z,0.00
2022-12-28T00:38:32.388Z,0.00
2022-12-28T00:39:32.384Z,0.00
2022-12-28T00:40:32.385Z,0.00
2022-12-28T00:41:32.366Z,0.00
2022-12-28T00:42:32.335Z,0.00
2022-12-28T00:43:32.355Z,0.00
2022-12-28T00:44:32.307Z,0.00
2022-12-28T00:45:32.364Z,0.00
2022-12-28T00:46:32.286Z,0.00
2022-12-28T00:47:32.293Z,0.00
2022-12-28T00:48:32.342Z,0.00
2022-12-28T00:49:32.276Z,0.00
2022-12-28T00:50:32.255Z,0.00
2022-12-28T00:51:32.235Z,0.00
2022-12-28T00:52:32.203Z,0.00
2022-12-28T00:53:32.204Z,0.00
2022-12-28T00:54:32.177Z,0.00
2022-12-28T00:55:32.183Z,0.00
2022-12-28T00:56:32.162Z,0.00
2022-12-28T00:57:32.153Z,0.00
2022-12-28T00:58:32.135Z,0.00
2022-12-28T00:59:32.125Z,0.00
2022-12-28T01:00:32.158Z,0.00
2022-12-28T01:01:32.189Z,0.00
2022-12-28T01:02:32.940Z,0.00
2022-12-28T01:03:32.072Z,0.00
2022-12-28T01:04:32.045Z,0.00
2022-12-28T01:05:32.061Z,0.00
2022-12-28T01:06:32.020Z,0.00
2022-12-28T01:07:32.033Z,0.00
2022-12-28T01:08:31.995Z,0.00
2022-12-28T01:09:31.997Z,0.00
2022-12-28T01:10:31.976Z,0.00
2022-12-28T01:11:31.963Z,0.00
2022-12-28T01:12:37.757Z,0.00
2022-12-28T01:13:32.983Z,0.00
2022-12-28T01:14:31.902Z,0.00
2022-12-28T01:15:31.908Z,0.00
2022-12-28T01:16:31.951Z,0.00
2022-12-28T01:17:31.873Z,0.00
2022-12-28T01:18:31.852Z,0.00
2022-12-28T01:19:31.872Z,0.00
2022-12-28T01:20:31.846Z,0.00
2022-12-28T01:21:31.840Z,0.00
2022-12-28T01:22:31.826Z,0.00
2022-12-28T01:23:31.856Z,0.00
2022-12-28T01:24:31.784Z,0.00
2022-12-28T01:25:31.784Z,0.00
2022-12-28T01:26:31.761Z,0.00
2022-12-28T01:27:31.754Z,0.00
2022-12-28T01:28:31.730Z,0.00
2022-12-28T01:29:31.731Z,0.00
2022-12-28T01:30:31.713Z,0.00
2022-12-28T01:31:31.731Z,0.00
2022-12-28T01:32:31.683Z,0.00
2022-12-28T01:33:31.687Z,0.00
2022-12-28T01:34:31.652Z,0.00
2022-12-28T01:35:31.676Z,0.00
2022-12-28T01:36:31.648Z,0.00
2022-12-28T01:37:31.636Z,0.00
2022-12-28T01:38:31.617Z,0.00
2022-12-28T01:39:31.613Z,0.00
2022-12-28T01:40:31.584Z,0.00
2022-12-28T01:41:31.592Z,0.00
2022-12-28T01:42:31.552Z,0.00
2022-12-28T01:43:31.545Z,0.00
2022-12-28T01:44:31.527Z,0.00
2022-12-28T01:45:31.564Z,0.00
2022-12-28T01:46:31.492Z,0.00
2022-12-28T01:47:31.501Z,0.00
2022-12-28T01:48:31.463Z,0.00
2022-12-28T01:49:31.463Z,0.00
2022-12-28T01:50:31.451Z,0.00
2022-12-28T01:51:31.432Z,0.00
2022-12-28T01:52:31.451Z,0.00
2022-12-28T01:53:31.423Z,0.00
2022-12-28T01:54:31.403Z,0.00
2022-12-28T01:55:31.394Z,0.00
2022-12-28T01:56:31.374Z,0.00
2022-12-28T01:57:31.378Z,0.00
2022-12-28T01:58:31.355Z,0.00
2022-12-28T01:59:31.333Z,0.00
2022-12-28T02:00:31.322Z,0.00
2022-12-28T02:01:31.410Z,0.00
2022-12-28T02:02:31.389Z,0.00
2022-12-28T02:03:31.291Z,0.00
2022-12-28T02:04:31.261Z,0.00
2022-12-28T02:05:31.264Z,0.00
2022-12-28T02:06:31.242Z,0.00
2022-12-28T02:07:31.243Z,0.00
2022-12-28T02:08:31.222Z,0.00
2022-12-28T02:09:31.221Z,0.00
2022-12-28T02:10:42.206Z,0.00
2022-12-28T02:11:32.182Z,0.00
2022-12-28T02:12:31.216Z,0.00
2022-12-28T02:13:31.160Z,0.00
2022-12-28T02:14:31.146Z,0.00
2022-12-28T02:15:31.138Z,0.00
2022-12-28T02:16:31.163Z,0.00
2022-12-28T02:17:31.104Z,0.00
2022-12-28T02:18:31.082Z,0.00
2022-12-28T02:19:31.091Z,0.00
2022-12-28T02:20:31.132Z,0.00
2022-12-28T02:21:31.064Z,0.00
2022-12-28T02:22:31.043Z,0.00
2022-12-28T02:23:31.045Z,0.00
2022-12-28T02:24:31.000Z,0.00
2022-12-28T02:25:31.018Z,0.00
2022-12-28T02:26:30.993Z,0.00
2022-12-28T02:27:30.980Z,0.00
2022-12-28T02:28:30.956Z,0.00
2022-12-28T02:29:30.976Z,0.00
2022-12-28T02:30:31.008Z,0.00
2022-12-28T02:31:30.929Z,0.00
2022-12-28T02:32:30.937Z,0.00
2022-12-28T02:33:30.912Z,0.00
2022-12-28T02:34:30.882Z,0.00
2022-12-28T02:35:30.881Z,0.00
2022-12-28T02:36:30.863Z,0.00
2022-12-28T02:37:30.851Z,0.00
2022-12-28T02:38:30.841Z,0.00
2022-12-28T02:39:30.822Z,0.00
2022-12-28T02:40:30.809Z,0.00
2022-12-28T02:41:30.800Z,0.00
2022-12-28T02:42:30.769Z,0.00
2022-12-28T02:43:30.780Z,0.00
2022-12-28T02:44:30.740Z,0.00
2022-12-28T02:45:30.731Z,0.00
2022-12-28T02:46:30.767Z,0.00
2022-12-28T02:47:30.710Z,0.00
2022-12-28T02:48:30.702Z,0.00
2022-12-28T02:49:30.757Z,0.00
2022-12-28T02:50:30.671Z,0.00
2022-12-28T02:51:30.675Z,0.00
2022-12-28T02:52:30.650Z,0.00
2022-12-28T02:53:30.650Z,0.00
2022-12-28T02:54:30.632Z,0.00
2022-12-28T02:55:30.622Z,0.00
2022-12-28T02:56:30.580Z,0.00
2022-12-28T02:57:30.580Z,0.00
2022-12-28T02:58:30.579Z,0.00
2022-12-28T02:59:30.562Z,0.00
2022-12-28T03:00:30.565Z,0.00
2022-12-28T03:01:30.629Z,0.00
2022-12-28T03:02:30.596Z,0.00
2022-12-28T03:03:30.509Z,0.00
2022-12-28T03:04:30.497Z,0.00
2022-12-28T03:05:30.492Z,0.00
2022-12-28T03:06:30.779Z,0.00
2022-12-28T03:07:30.461Z,0.00
2022-12-28T03:08:30.440Z,0.00
2022-12-28T03:09:30.446Z,0.00
2022-12-28T03:10:30.413Z,0.00
2022-12-28T03:11:30.411Z,0.00
2022-12-28T03:12:30.389Z,0.00
2022-12-28T03:13:30.369Z,0.00
2022-12-28T03:14:30.352Z,0.00
2022-12-28T03:15:30.511Z,0.00
2022-12-28T03:16:30.343Z,0.00
2022-12-28T03:17:30.335Z,0.00
2022-12-28T03:18:30.329Z,0.00
2022-12-28T03:19:30.301Z,0.00
2022-12-28T03:20:30.270Z,0.00
2022-12-28T03:21:30.306Z,0.00
2022-12-28T03:22:30.256Z,0.00
2022-12-28T03:23:30.256Z,0.00
2022-12-28T03:24:30.222Z,0.00
2022-12-28T03:25:30.219Z,0.00
2022-12-28T03:26:30.204Z,0.00
2022-12-28T03:27:30.227Z,0.00
2022-12-28T03:28:30.181Z,0.00
2022-12-28T03:29:30.170Z,0.00
2022-12-28T03:30:30.149Z,0.00
2022-12-28T03:31:30.214Z,0.00
2022-12-28T03:32:30.121Z,0.00
2022-12-28T03:33:30.129Z,0.00
2022-12-28T03:34:30.101Z,0.00
2022-12-28T03:35:30.092Z,0.00
2022-12-28T03:36:30.070Z,0.00
2022-12-28T03:37:30.067Z,0.00
2022-12-28T03:38:30.059Z,0.00
2022-12-28T03:39:30.040Z,0.00
2022-12-28T03:40:30.009Z,0.00
2022-12-28T03:41:30.011Z,0.00
2022-12-28T03:42:29.988Z,0.00
2022-12-28T03:43:30.003Z,0.00
2022-12-28T03:44:29.978Z,0.00
2022-12-28T03:45:45.605Z,0.00
2022-12-28T03:46:31.018Z,0.00
2022-12-28T03:47:29.941Z,0.00
2022-12-28T03:48:29.935Z,0.00
2022-12-28T03:49:29.911Z,0.00
2022-12-28T03:50:29.897Z,0.00
2022-12-28T03:51:29.931Z,0.00
2022-12-28T03:52:29.860Z,0.00
2022-12-28T03:53:29.860Z,0.00
2022-12-28T03:54:29.838Z,0.00
2022-12-28T03:55:29.820Z,0.00
2022-12-28T03:56:29.819Z,0.00
2022-12-28T03:57:29.809Z,0.00
2022-12-28T03:58:29.787Z,0.00
2022-12-28T03:59:29.799Z,0.00
2022-12-28T04:00:29.771Z,0.00
2022-12-28T04:01:29.854Z,0.00
2022-12-28T04:02:29.915Z,0.00
2022-12-28T04:03:29.801Z,0.00
2022-12-28T04:04:29.711Z,0.00
2022-12-28T04:05:29.720Z,0.00
2022-12-28T04:06:29.679Z,0.00
2022-12-28T04:07:29.690Z,0.00
2022-12-28T04:08:29.658Z,0.00
2022-12-28T04:09:29.670Z,0.00
2022-12-28T04:10:29.642Z,0.00
2022-12-28T04:11:29.629Z,0.00
2022-12-28T04:12:29.609Z,0.00
2022-12-28T04:13:29.608Z,0.00
2022-12-28T04:14:29.572Z,0.00
2022-12-28T04:15:29.578Z,0.00
2022-12-28T04:16:29.585Z,0.00
2022-12-28T04:17:29.590Z,0.00
2022-12-28T04:18:29.537Z,0.00
2022-12-28T04:19:29.531Z,0.00
2022-12-28T04:20:29.499Z,0.00
2022-12-28T04:21:29.500Z,0.00
2022-12-28T04:22:29.478Z,0.00
2022-12-28T04:23:29.454Z,0.00
2022-12-28T04:24:29.462Z,0.00
2022-12-28T04:25:29.430Z,0.00
2022-12-28T04:26:29.480Z,0.00
2022-12-28T04:27:29.410Z,0.00
2022-12-28T04:28:29.410Z,0.00
2022-12-28T04:29:29.385Z,0.00
2022-12-28T04:30:29.388Z,0.00
2022-12-28T04:31:29.368Z,0.00
2022-12-28T04:32:29.352Z,0.00
2022-12-28T04:33:29.319Z,0.00
2022-12-28T04:34:29.339Z,0.00
2022-12-28T04:35:29.292Z,0.00
2022-12-28T04:36:29.290Z,0.00
2022-12-28T04:37:29.291Z,0.00
2022-12-28T04:38:29.271Z,0.00
2022-12-28T04:39:29.248Z,0.00
2022-12-28T04:40:30.253Z,0.00
2022-12-28T04:41:29.224Z,0.00
2022-12-28T04:42:29.218Z,0.00
2022-12-28T04:43:29.207Z,0.00
2022-12-28T04:44:29.200Z,0.00
2022-12-28T04:45:29.171Z,0.00
2022-12-28T04:46:29.190Z,0.00
2022-12-28T04:47:29.147Z,0.00
2022-12-28T04:48:29.147Z,0.00
2022-12-28T04:49:29.111Z,0.00
2022-12-28T04:50:29.108Z,0.00
2022-12-28T04:51:29.125Z,0.00
2022-12-28T04:52:29.088Z,0.00
2022-12-28T04:53:29.059Z,0.00
2022-12-28T04:54:29.074Z,0.00
2022-12-28T04:55:32.903Z,0.00
2022-12-28T04:56:29.039Z,0.00
2022-12-28T04:57:29.016Z,0.00
2022-12-28T04:58:29.009Z,0.00
2022-12-28T04:59:28.981Z,0.00
2022-12-28T05:00:29.068Z,0.00
2022-12-28T05:01:29.230Z,0.00
2022-12-28T05:02:29.021Z,0.00
2022-12-28T05:03:28.934Z,0.00
2022-12-28T05:04:28.933Z,0.00
2022-12-28T05:05:28.916Z,0.00
2022-12-28T05:06:28.898Z,0.00
2022-12-28T05:07:28.869Z,0.00
2022-12-28T05:08:28.868Z,0.00
2022-12-28T05:09:28.847Z,0.00
2022-12-28T05:10:28.853Z,0.00
2022-12-28T05:11:28.873Z,0.00
2022-12-28T05:12:28.844Z,0.00
2022-12-28T05:13:28.810Z,0.00
2022-12-28T05:14:33.601Z,0.00
2022-12-28T05:15:29.780Z,0.00
2022-12-28T05:16:28.838Z,0.00
2022-12-28T05:17:28.749Z,0.00
2022-12-28T05:18:28.750Z,0.00
2022-12-28T05:19:28.720Z,0.00
2022-12-28T05:20:28.719Z,0.00
2022-12-28T05:21:28.709Z,0.00
2022-12-28T05:22:28.689Z,0.00
2022-12-28T05:23:28.667Z,0.00
2022-12-28T05:24:28.673Z,0.00
2022-12-28T05:25:28.644Z,0.00
2022-12-28T05:26:28.671Z,0.00
2022-12-28T05:27:28.629Z,0.00
2022-12-28T05:28:28.611Z,0.00
2022-12-28T05:29:28.591Z,0.00
2022-12-28T05:30:28.578Z,0.00
2022-12-28T05:31:28.599Z,0.00
2022-12-28T05:32:28.576Z,0.00
2022-12-28T05:33:28.537Z,0.00
2022-12-28T05:34:28.529Z,0.00
2022-12-28T05:35:28.527Z,0.00
2022-12-28T05:36:28.524Z,0.00
2022-12-28T05:37:28.488Z,0.00
2022-12-28T05:38:28.512Z,0.00
2022-12-28T05:39:28.459Z,0.00
2022-12-28T05:40:28.463Z,0.00
2022-12-28T05:41:28.436Z,0.00
2022-12-28T05:42:28.443Z,0.00
2022-12-28T05:43:28.432Z,0.00
2022-12-28T05:44:28.398Z,0.00
2022-12-28T05:45:28.389Z,0.00
2022-12-28T05:46:28.407Z,0.00
2022-12-28T05:47:28.356Z,0.00
2022-12-28T05:48:28.338Z,0.00
2022-12-28T05:49:28.333Z,0.00
2022-12-28T05:50:28.317Z,0.00
2022-12-28T05:51:28.317Z,0.00
2022-12-28T05:52:28.309Z,0.00
2022-12-28T05:53:28.278Z,0.00
2022-12-28T05:54:28.274Z,0.00
2022-12-28T05:55:28.248Z,0.00
2022-12-28T05:56:28.247Z,0.00
2022-12-28T05:57:28.228Z,0.00
2022-12-28T05:58:28.219Z,0.00
2022-12-28T05:59:28.211Z,0.00
2022-12-28T06:00:28.191Z,0.00
2022-12-28T06:01:28.194Z,0.00
2022-12-28T06:02:28.255Z,0.00
2022-12-28T06:03:28.255Z,0.00
2022-12-28T06:04:28.164Z,0.00
2022-12-28T06:05:28.126Z,0.00
2022-12-28T06:06:28.117Z,0.00
2022-12-28T06:07:28.094Z,0.00
2022-12-28T06:08:28.087Z,0.00
2022-12-28T06:09:28.112Z,0.00
2022-12-28T06:10:28.069Z,0.00
2022-12-28T06:11:28.040Z,0.00
2022-12-28T06:12:28.036Z,0.00
2022-12-28T06:13:28.011Z,0.00
2022-12-28T06:14:28.021Z,0.00
2022-12-28T06:15:27.998Z,0.00
2022-12-28T06:16:28.168Z,0.00
2022-12-28T06:17:27.967Z,0.00
2022-12-28T06:18:27.996Z,0.00
2022-12-28T06:20:20.628Z,0.00
2022-12-28T06:21:20.600Z,0.00
2022-12-28T06:22:20.658Z,0.00
2022-12-28T06:23:20.573Z,0.00
2022-12-28T06:24:20.585Z,0.00
2022-12-28T06:25:20.591Z,0.00
2022-12-28T06:26:20.580Z,0.00
2022-12-28T06:27:20.539Z,0.00
2022-12-28T06:28:20.523Z,0.00
2022-12-28T06:29:20.490Z,0.00
2022-12-28T06:30:20.542Z,0.00
2022-12-28T06:31:20.478Z,0.00
2022-12-28T06:32:20.470Z,0.00
2022-12-28T06:33:20.451Z,0.00
2022-12-28T06:34:20.438Z,0.00
2022-12-28T06:35:20.433Z,0.00
2022-12-28T06:36:20.912Z,0.00
2022-12-28T06:37:20.425Z,0.00
2022-12-28T06:38:20.393Z,0.00
2022-12-28T06:39:20.507Z,0.00
2022-12-28T06:40:33.349Z,0.00
2022-12-28T06:41:21.347Z,0.00
2022-12-28T06:42:20.341Z,0.00
2022-12-28T06:43:20.349Z,0.00
2022-12-28T06:44:20.326Z,0.00
2022-12-28T06:45:20.289Z,0.00
2022-12-28T06:46:20.319Z,0.00
2022-12-28T06:47:20.260Z,0.00
2022-12-28T06:48:20.278Z,0.00
2022-12-28T06:49:20.252Z,0.00
2022-12-28T06:50:20.239Z,0.00
2022-12-28T06:51:20.210Z,0.00
2022-12-28T06:52:20.219Z,0.00
2022-12-28T06:53:20.191Z,0.00
2022-12-28T06:54:20.212Z,0.00
2022-12-28T06:55:20.161Z,0.00
2022-12-28T06:56:20.173Z,0.00
2022-12-28T06:57:20.139Z,0.00
2022-12-28T06:58:20.138Z,0.00
2022-12-28T06:59:20.151Z,0.00
2022-12-28T07:00:20.112Z,0.00
2022-12-28T07:01:20.166Z,0.00
2022-12-28T07:02:20.141Z,0.00
2022-12-28T07:03:20.088Z,0.00
2022-12-28T07:04:20.066Z,0.00
2022-12-28T07:05:20.050Z,0.00
2022-12-28T07:06:20.041Z,0.00
2022-12-28T07:07:20.041Z,0.00
2022-12-28T07:08:20.016Z,0.00
2022-12-28T07:09:19.990Z,0.00
2022-12-28T07:10:20.019Z,0.00
2022-12-28T07:11:19.969Z,0.00
2022-12-28T07:12:19.970Z,0.00
2022-12-28T07:13:24.448Z,0.00
2022-12-28T07:14:20.967Z,0.00
2022-12-28T07:15:19.910Z,0.00
2022-12-28T07:16:19.969Z,0.00
2022-12-28T07:17:19.888Z,5.62
2022-12-28T07:18:19.879Z,5.62
2022-12-28T07:19:19.872Z,5.62
2022-12-28T07:20:19.851Z,5.62
2022-12-28T07:21:19.839Z,5.62
2022-12-28T07:22:19.831Z,5.62
2022-12-28T07:23:19.821Z,5.62
2022-12-28T07:24:19.841Z,5.62
2022-12-28T07:25:19.779Z,11.25
2022-12-28T07:26:19.782Z,11.25
2022-12-28T07:27:19.763Z,11.25
2022-12-28T07:28:19.745Z,11.25
2022-12-28T07:29:19.749Z,11.25
2022-12-28T07:30:19.715Z,11.25
2022-12-28T07:31:19.782Z,11.25
2022-12-28T07:32:19.696Z,16.88
2022-12-28T07:33:19.688Z,16.88
2022-12-28T07:34:19.688Z,16.88
2022-12-28T07:35:19.755Z,16.88
2022-12-28T07:36:19.654Z,16.88
2022-12-28T07:37:19.640Z,16.88
2022-12-28T07:38:21.702Z,16.88
2022-12-28T07:39:19.611Z,16.88
2022-12-28T07:40:19.599Z,16.88
2022-12-28T07:41:19.619Z,16.88
2022-12-28T07:42:19.576Z,16.88
2022-12-28T07:43:19.547Z,16.88
2022-12-28T07:44:19.546Z,16.88
2022-12-28T07:45:19.527Z,16.88
2022-12-28T07:46:19.702Z,16.88
2022-12-28T07:47:19.490Z,16.88
2022-12-28T07:48:19.498Z,16.88
2022-12-28T07:49:19.485Z,16.88
2022-12-28T07:50:19.481Z,16.88
2022-12-28T07:51:19.439Z,11.25
2022-12-28T07:52:19.442Z,11.25
2022-12-28T07:53:22.208Z,16.88
2022-12-28T07:54:19.417Z,16.88
2022-12-28T07:55:19.425Z,16.88
2022-12-28T07:56:19.425Z,22.50
2022-12-28T07:57:19.367Z,28.12
2022-12-28T07:58:19.365Z,28.12
2022-12-28T07:59:19.342Z,28.12
2022-12-28T08:00:19.348Z,33.75
2022-12-28T08:01:19.406Z,33.75
2022-12-28T08:02:19.417Z,28.12
2022-12-28T08:03:19.312Z,28.12
2022-12-28T08:04:19.277Z,28.12
2022-12-28T08:05:19.269Z,22.50
2022-12-28T08:06:19.278Z,22.50
2022-12-28T08:07:19.270Z,22.50
2022-12-28T08:08:19.249Z,22.50
2022-12-28T08:09:19.219Z,22.50
2022-12-28T08:10:19.218Z,22.50
2022-12-28T08:11:19.188Z,22.50
2022-12-28T08:12:19.187Z,22.50
2022-12-28T08:13:19.219Z,22.50
2022-12-28T08:14:19.160Z,22.50
2022-12-28T08:15:19.141Z,22.50
2022-12-28T08:16:19.181Z,28.12
2022-12-28T08:17:21.254Z,28.12
2022-12-28T08:18:19.108Z,33.75
2022-12-28T08:19:19.106Z,33.75
2022-12-28T08:20:19.100Z,33.75
2022-12-28T08:21:19.048Z,28.12
2022-12-28T08:22:19.072Z,28.12
2022-12-28T08:23:19.032Z,28.12
2022-12-28T08:24:19.111Z,28.12
2022-12-28T08:25:19.008Z,28.12
2022-12-28T08:26:19.007Z,33.75
2022-12-28T08:27:18.989Z,39.38
2022-12-28T08:28:18.988Z,45.00
2022-12-28T08:29:18.968Z,50.62
2022-12-28T08:30:18.970Z,61.88
2022-12-28T08:31:18.973Z,67.50
2022-12-28T08:32:18.933Z,73.12
2022-12-28T08:33:18.915Z,78.75
2022-12-28T08:34:18.913Z,78.75
2022-12-28T08:35:18.901Z,84.38
2022-12-28T08:36:18.889Z,90.00
2022-12-28T08:37:18.875Z,95.62
2022-12-28T08:38:18.846Z,101.25
2022-12-28T08:39:18.843Z,101.25
2022-12-28T08:40:18.840Z,101.25
2022-12-28T08:41:18.813Z,101.25
2022-12-28T08:42:18.804Z,101.25
2022-12-28T08:43:18.776Z,101.25
2022-12-28T08:44:18.777Z,95.62
2022-12-28T08:45:18.767Z,95.62
2022-12-28T08:46:18.946Z,95.62
2022-12-28T08:47:18.774Z,95.62
2022-12-28T08:48:18.729Z,95.62
2022-12-28T08:49:18.698Z,90.00
2022-12-28T08:50:20.245Z,84.38
2022-12-28T08:51:18.697Z,84.38
2022-12-28T08:52:18.688Z,90.00
2022-12-28T08:53:18.645Z,90.00
2022-12-28T08:54:18.646Z,95.62
2022-12-28T08:55:18.625Z,95.62
2022-12-28T08:56:18.621Z,95.62
2022-12-28T08:57:18.603Z,90.00
2022-12-28T08:58:18.610Z,90.00
2022-12-28T08:59:18.597Z,84.38
2022-12-28T09:00:18.565Z,90.00
2022-12-28T09:01:18.660Z,90.00
2022-12-28T09:02:18.645Z,90.00
2022-12-28T09:03:18.588Z,90.00
2022-12-28T09:04:18.527Z,84.38
2022-12-28T09:05:18.502Z,78.75
2022-12-28T09:06:18.507Z,73.12
2022-12-28T09:07:18.477Z,73.12
2022-12-28T09:08:18.508Z,67.50
2022-12-28T09:09:18.444Z,61.88
2022-12-28T09:10:18.497Z,61.88
2022-12-28T09:11:18.407Z,67.50
2022-12-28T09:12:18.417Z,67.50
2022-12-28T09:13:18.402Z,67.50
2022-12-28T09:14:23.634Z,73.12
2022-12-28T09:15:19.363Z,78.75
2022-12-28T09:16:18.436Z,78.75
2022-12-28T09:17:18.350Z,84.38
2022-12-28T09:18:18.355Z,90.00
2022-12-28T09:19:18.407Z,84.38
2022-12-28T09:20:18.315Z,78.75
2022-12-28T09:21:18.311Z,67.50
2022-12-28T09:22:18.272Z,61.88
2022-12-28T09:23:18.266Z,56.25
2022-12-28T09:24:18.264Z,56.25
2022-12-28T09:25:18.254Z,61.88
2022-12-28T09:26:18.225Z,61.88
2022-12-28T09:27:18.226Z,67.50
2022-12-28T09:28:18.206Z,67.50
2022-12-28T09:29:18.256Z,67.50
2022-12-28T09:30:18.188Z,61.88
2022-12-28T09:31:18.214Z,61.88
2022-12-28T09:32:18.146Z,61.88
2022-12-28T09:33:18.147Z,67.50
2022-12-28T09:35:19.125Z,84.38
2022-12-28T09:36:18.084Z,90.00
2022-12-28T09:37:18.189Z,84.38
2022-12-28T09:38:18.076Z,90.00
2022-12-28T09:39:18.239Z,84.38
2022-12-28T09:40:18.040Z,78.75
2022-12-28T09:41:18.047Z,73.12
2022-12-28T09:42:18.026Z,67.50
2022-12-28T09:43:18.019Z,61.88
2022-12-28T09:44:17.987Z,61.88
2022-12-28T09:45:17.987Z,67.50
2022-12-28T09:46:18.063Z,78.75
2022-12-28T09:47:17.976Z,84.38
2022-12-28T09:48:17.946Z,90.00
2022-12-28T09:49:17.930Z,84.38
2022-12-28T09:50:17.921Z,78.75
2022-12-28T09:51:17.906Z,84.38
2022-12-28T09:52:17.894Z,90.00
2022-12-28T09:53:17.894Z,95.62
2022-12-28T09:54:17.863Z,95.62
2022-12-28T09:55:17.864Z,90.00
2022-12-28T09:56:17.833Z,90.00
2022-12-28T09:57:17.825Z,90.00
2022-12-28T09:58:17.830Z,90.00
2022-12-28T09:59:17.815Z,95.62
2022-12-28T10:00:17.786Z,95.62
2022-12-28T10:01:17.888Z,101.25
2022-12-28T10:02:17.801Z,106.88
2022-12-28T10:03:17.868Z,118.12
2022-12-28T10:04:17.745Z,129.38
2022-12-28T10:05:17.726Z,123.75
2022-12-28T10:06:17.706Z,118.12
2022-12-28T10:07:17.696Z,106.88
2022-12-28T10:08:17.664Z,101.25
2022-12-28T10:09:17.684Z,101.25
2022-12-28T10:10:17.688Z,106.88
2022-12-28T10:11:17.655Z,106.88
2022-12-28T10:12:17.679Z,106.88
2022-12-28T10:13:53.673Z,106.88
2022-12-28T10:14:18.619Z,101.25
2022-12-28T10:15:17.598Z,101.25
2022-12-28T10:16:17.626Z,101.25
2022-12-28T10:17:17.589Z,90.00
2022-12-28T10:18:17.569Z,90.00
2022-12-28T10:19:17.556Z,95.62
2022-12-28T10:20:17.536Z,101.25
2022-12-28T10:21:17.525Z,106.88
2022-12-28T10:22:17.517Z,112.50
2022-12-28T10:23:17.496Z,112.50
2022-12-28T10:24:33.215Z,118.12
2022-12-28T10:25:18.488Z,123.75
2022-12-28T10:26:17.448Z,112.50
2022-12-28T10:27:17.457Z,101.25
2022-12-28T10:28:17.430Z,95.62
2022-12-28T10:29:17.423Z,90.00
2022-12-28T10:30:17.405Z,95.62
2022-12-28T10:31:17.482Z,106.88
2022-12-28T10:32:17.385Z,118.12
2022-12-28T10:33:17.375Z,129.38
2022-12-28T10:34:17.714Z,129.38
2022-12-28T10:35:17.348Z,135.00
2022-12-28T10:36:17.316Z,140.62
2022-12-28T10:37:17.496Z,146.25
2022-12-28T10:38:17.328Z,146.25
2022-12-28T10:39:17.305Z,151.88
2022-12-28T10:40:17.319Z,157.50
2022-12-28T10:41:17.292Z,151.88
2022-12-28T10:42:17.334Z,157.50
2022-12-28T10:43:17.256Z,163.12
2022-12-28T10:45:18.220Z,180.00
2022-12-28T10:46:17.218Z,185.62
2022-12-28T10:47:17.175Z,174.38
2022-12-28T10:48:18.274Z,163.12
2022-12-28T10:49:17.155Z,140.62
2022-12-28T10:51:18.116Z,123.75
2022-12-28T10:52:17.113Z,123.75
2022-12-28T10:53:17.595Z,123.75
2022-12-28T10:54:17.106Z,118.12
2022-12-28T10:55:18.139Z,112.50
2022-12-28T10:56:17.555Z,106.88
2022-12-28T10:57:17.066Z,106.88
2022-12-28T10:58:33.491Z,106.88
2022-12-28T10:59:18.048Z,101.25
2022-12-28T11:00:17.016Z,90.00
2022-12-28T11:01:18.050Z,90.00
2022-12-28T11:02:17.319Z,101.25
2022-12-28T11:03:17.009Z,106.88
2022-12-28T11:04:16.982Z,112.50
2022-12-28T11:05:16.966Z,123.75
2022-12-28T11:06:18.970Z,140.62
2022-12-28T11:07:17.932Z,157.50
2022-12-28T11:08:16.903Z,163.12
2022-12-28T11:09:16.955Z,168.75
2022-12-28T11:10:16.983Z,174.38
2022-12-28T11:11:16.915Z,174.38
2022-12-28T11:12:16.872Z,180.00
2022-12-28T11:13:21.613Z,174.38
2022-12-28T11:14:17.847Z,163.12
2022-12-28T11:15:16.851Z,157.50
2022-12-28T11:16:16.850Z,157.50
2022-12-28T11:17:16.902Z,151.88
2022-12-28T11:18:16.772Z,135.00
2022-12-28T11:19:16.800Z,129.38
2022-12-28T11:20:16.825Z,123.75
2022-12-28T11:21:16.754Z,112.50
2022-12-28T11:22:16.728Z,106.88
2022-12-28T11:23:16.775Z,106.88
2022-12-28T11:24:16.737Z,112.50
2022-12-28T11:25:16.687Z,112.50
2022-12-28T11:26:16.676Z,112.50
2022-12-28T11:27:16.677Z,112.50
2022-12-28T11:28:16.681Z,112.50
2022-12-28T11:29:16.698Z,118.12
2022-12-28T11:30:17.690Z,118.12
2022-12-28T11:31:16.653Z,123.75
2022-12-28T11:32:16.600Z,118.12
2022-12-28T11:33:16.647Z,112.50
2022-12-28T11:34:16.587Z,112.50
2022-12-28T11:35:16.581Z,106.88
2022-12-28T11:36:16.570Z,112.50
2022-12-28T11:37:16.550Z,123.75
2022-12-28T11:38:16.528Z,129.38
2022-12-28T11:39:16.537Z,140.62
2022-12-28T11:40:16.588Z,140.62
2022-12-28T11:41:16.495Z,135.00
2022-12-28T11:42:38.308Z,135.00
2022-12-28T11:43:17.484Z,135.00
2022-12-28T11:44:16.424Z,135.00
2022-12-28T11:45:16.486Z,135.00
2022-12-28T11:46:16.477Z,129.38
2022-12-28T11:47:16.424Z,135.00
2022-12-28T11:48:16.379Z,129.38
2022-12-28T11:49:16.387Z,123.75
2022-12-28T11:50:16.357Z,123.75
2022-12-28T11:51:16.356Z,129.38
2022-12-28T11:52:16.365Z,129.38
2022-12-28T11:53:16.326Z,135.00
2022-12-28T11:54:16.361Z,146.25
2022-12-28T11:55:16.328Z,151.88
2022-12-28T11:56:16.299Z,163.12
2022-12-28T11:57:16.285Z,163.12
2022-12-28T11:58:16.272Z,157.50
2022-12-28T11:59:16.254Z,151.88
2022-12-28T12:00:21.939Z,146.25
2022-12-28T12:01:17.271Z,140.62
2022-12-28T12:02:16.307Z,135.00
2022-12-28T12:03:16.240Z,135.00
2022-12-28T12:04:16.186Z,129.38
2022-12-28T12:05:16.202Z,118.12
2022-12-28T12:06:16.151Z,118.12
2022-12-28T12:07:16.173Z,112.50
2022-12-28T12:08:16.616Z,112.50
2022-12-28T12:09:16.123Z,106.88
2022-12-28T12:10:16.097Z,95.62
2022-12-28T12:11:16.126Z,95.62
2022-12-28T12:12:18.123Z,101.25
2022-12-28T12:13:16.068Z,112.50
2022-12-28T12:14:16.056Z,112.50
2022-12-28T12:15:16.038Z,129.38
2022-12-28T12:16:16.062Z,135.00
2022-12-28T12:17:16.035Z,135.00
2022-12-28T12:18:16.013Z,123.75
2022-12-28T12:19:15.990Z,129.38
2022-12-28T12:20:23.992Z,135.00
2022-12-28T12:21:16.362Z,140.62
2022-12-28T12:22:18.620Z,146.25
2022-12-28T12:23:15.944Z,146.25
2022-12-28T12:24:15.943Z,151.88
2022-12-28T12:25:15.933Z,151.88
2022-12-28T12:26:15.884Z,168.75
2022-12-28T12:27:15.894Z,168.75
2022-12-28T12:28:15.855Z,174.38
2022-12-28T12:29:15.861Z,208.12
2022-12-28T12:30:15.847Z,202.50
2022-12-28T12:31:15.930Z,208.12
2022-12-28T12:32:15.814Z,202.50
2022-12-28T12:33:15.805Z,241.88
2022-12-28T12:34:19.444Z,213.75
2022-12-28T12:35:15.790Z,196.88
2022-12-28T12:36:15.765Z,180.00
2022-12-28T12:37:15.751Z,180.00
2022-12-28T12:38:15.722Z,185.62
2022-12-28T12:39:15.721Z,174.38
2022-12-28T12:40:15.702Z,163.12
2022-12-28T12:41:15.712Z,168.75
2022-12-28T12:42:15.675Z,163.12
2022-12-28T12:43:15.686Z,163.12
2022-12-28T12:44:15.652Z,213.75
2022-12-28T12:45:15.693Z,247.50
2022-12-28T12:46:15.658Z,202.50
2022-12-28T12:47:15.620Z,196.88
2022-12-28T12:48:15.614Z,157.50
2022-12-28T12:49:15.602Z,140.62
2022-12-28T12:50:15.576Z,118.12
2022-12-28T12:51:15.571Z,118.12
2022-12-28T12:52:15.549Z,123.75
2022-12-28T12:53:15.540Z,118.12
2022-12-28T12:54:15.522Z,118.12
2022-12-28T12:55:15.506Z,118.12
2022-12-28T12:56:15.495Z,123.75
2022-12-28T12:57:15.486Z,123.75
2022-12-28T12:58:15.466Z,123.75
2022-12-28T12:59:15.461Z,129.38
2022-12-28T13:00:15.461Z,129.38
2022-12-28T13:01:15.520Z,129.38
2022-12-28T13:02:15.583Z,123.75
2022-12-28T13:03:15.505Z,129.38
2022-12-28T13:04:15.396Z,140.62
2022-12-28T13:05:15.395Z,146.25